Rye Beach, New Hampshire
Current Conditions -  °F | °C
As of 12:58 PM on Tuesday 21 Oct 2014 (Local Time) from KPSM Reporting Station
Overcast Overcast  
Wind Chill: 58°   Ceiling: 900
Heat Index: 58°   Visibility: 10mi
Dew Point: 53°   Wind: 6mph
Humidity: 86%   Direction: 70°ENE
Pressure: 29.95"   Gusts: NA
Location:  42.98°N, 70.76°W
Report Text: KPSM 211658Z 07005KT 10SM OVC009 14/12 A2995 RMK AO2A SLP146 T01420119
Loading
Personal Weather Stations






























Interactive Weather Map
Tropical Storm Tracking
New forecast layout! Learn more

10-Day Weather Forecast

Advertisements
Track Severe Weather on mobile